createdAt,value
2022-08-16T00:03:06.696Z,8.40
2022-08-16T00:08:35.697Z,8.73
2022-08-16T00:13:41.746Z,8.55
2022-08-16T00:18:44.547Z,8.50
2022-08-16T00:23:46.529Z,8.93
2022-08-16T00:28:54.916Z,8.52
2022-08-16T00:33:56.885Z,9.23
2022-08-16T00:38:58.706Z,9.18
2022-08-16T00:44:05.678Z,8.63
2022-08-16T00:49:18.907Z,9.77
2022-08-16T00:54:24.525Z,9.30
2022-08-16T00:59:30.657Z,9.27
2022-08-16T01:04:35.912Z,8.82
2022-08-16T01:09:42.889Z,9.40
2022-08-16T01:14:53.355Z,9.20
2022-08-16T01:20:00.630Z,9.00
2022-08-16T01:25:07.842Z,10.02
2022-08-16T01:30:20.681Z,8.95
2022-08-16T01:35:28.078Z,8.90
2022-08-16T01:40:31.393Z,9.38
2022-08-16T01:45:40.419Z,9.73
2022-08-16T01:51:09.722Z,9.25
2022-08-16T01:56:08.049Z,10.30
2022-08-16T02:01:28.113Z,9.30
2022-08-16T02:06:34.335Z,10.32
2022-08-16T02:11:48.697Z,10.20
2022-08-16T02:16:56.360Z,10.40
2022-08-16T02:22:09.171Z,10.27
2022-08-16T02:27:22.842Z,10.15
2022-08-16T02:32:49.814Z,10.25
2022-08-16T02:37:51.392Z,9.88
2022-08-16T02:42:56.277Z,10.23
2022-08-16T02:48:01.386Z,9.77
2022-08-16T02:53:23.276Z,9.82
2022-08-16T03:04:29.300Z,10.25
2022-08-16T03:08:59.994Z,10.52
2022-08-16T03:14:08.353Z,11.30
2022-08-16T03:19:10.381Z,10.43
2022-08-16T03:24:29.397Z,11.30
2022-08-16T03:29:33.735Z,11.27
2022-08-16T03:34:35.593Z,11.65
2022-08-16T03:39:42.834Z,7.68
2022-08-16T03:44:49.322Z,11.85
2022-08-16T03:49:52.452Z,11.30
2022-08-16T03:54:59.296Z,10.10
2022-08-16T04:00:05.786Z,11.48
2022-08-16T04:05:09.084Z,11.95
2022-08-16T04:10:37.105Z,12.32
2022-08-16T04:15:35.787Z,12.82
2022-08-16T04:20:37.542Z,11.07
2022-08-16T04:25:42.420Z,11.33
2022-08-16T04:30:50.703Z,10.38
2022-08-16T04:35:56.188Z,10.00
2022-08-16T04:40:58.498Z,10.25
2022-08-16T04:46:03.053Z,11.23
2022-08-16T04:51:11.749Z,10.80
2022-08-16T04:56:14.672Z,11.32
2022-08-16T05:01:19.790Z,9.18
2022-08-16T05:06:21.775Z,10.85
2022-08-16T05:11:44.610Z,11.85
2022-08-16T05:16:47.734Z,12.65
2022-08-16T05:21:55.539Z,12.52
2022-08-16T05:26:57.352Z,11.60
2022-08-16T05:32:00.867Z,13.13
2022-08-16T05:37:03.879Z,13.13
2022-08-16T05:42:07.097Z,15.02
2022-08-16T05:47:11.199Z,13.05
2022-08-16T05:52:20.752Z,14.23
2022-08-16T05:57:22.751Z,13.70
2022-08-16T06:02:29.070Z,14.10
2022-08-16T06:07:32.174Z,13.38
2022-08-16T06:12:34.227Z,14.60
2022-08-16T06:17:41.652Z,13.07
2022-08-16T06:22:47.787Z,12.63
2022-08-16T06:27:59.863Z,13.18
2022-08-16T06:33:04.473Z,13.85
2022-08-16T06:38:06.321Z,14.75
2022-08-16T06:43:28.280Z,13.52
2022-08-16T06:48:33.529Z,13.65
2022-08-16T06:53:36.503Z,13.65
2022-08-16T06:58:38.612Z,15.55
2022-08-16T07:03:55.270Z,14.73
2022-08-16T07:08:58.965Z,14.73
2022-08-16T07:14:24.969Z,15.15
2022-08-16T07:20:01.999Z,13.68
2022-08-16T07:24:46.143Z,14.10
2022-08-16T07:29:48.045Z,14.20
2022-08-16T07:34:51.652Z,14.82
2022-08-16T07:39:54.752Z,14.65
2022-08-16T07:44:57.141Z,14.05
2022-08-16T07:50:05.642Z,14.90
2022-08-16T07:55:24.337Z,13.73
2022-08-16T08:00:36.613Z,13.38
2022-08-16T08:05:48.225Z,12.85
2022-08-16T08:10:50.125Z,12.80
2022-08-16T08:15:53.495Z,12.85
2022-08-16T08:20:59.369Z,11.93
2022-08-16T08:26:01.391Z,12.95
2022-08-16T08:31:04.164Z,12.90
2022-08-16T08:36:08.616Z,10.77
2022-08-16T08:41:11.060Z,10.98
2022-08-16T08:46:18.289Z,11.90
2022-08-16T08:51:24.785Z,11.23
2022-08-16T08:56:29.577Z,8.73
2022-08-16T09:01:36.298Z,10.02
2022-08-16T09:06:43.092Z,10.45
2022-08-16T09:11:52.408Z,12.10
2022-08-16T09:17:03.591Z,10.73
2022-08-16T09:22:20.189Z,11.70
2022-08-16T09:27:25.107Z,11.18
2022-08-16T09:32:30.216Z,10.13
2022-08-16T09:37:36.533Z,9.73
2022-08-16T09:43:05.204Z,9.13
2022-08-16T09:48:00.652Z,9.77
2022-08-16T09:53:08.054Z,8.65
2022-08-16T10:04:02.112Z,8.35
2022-08-16T10:09:06.879Z,9.45
2022-08-16T10:14:10.303Z,8.70
2022-08-16T10:20:02.443Z,8.23
2022-08-16T10:25:09.397Z,8.63
2022-08-16T10:30:25.538Z,9.52
2022-08-16T10:35:32.988Z,9.15
2022-08-16T10:40:36.911Z,7.80
2022-08-16T10:45:39.612Z,8.60
2022-08-16T10:50:44.585Z,7.90
2022-08-16T10:55:47.860Z,8.98
2022-08-16T11:01:00.018Z,7.72
2022-08-16T11:06:06.621Z,7.45
2022-08-16T11:11:18.600Z,7.70
2022-08-16T11:16:26.604Z,7.87
2022-08-16T11:38:57.679Z,7.20
2022-08-16T11:44:00.716Z,6.10
2022-08-16T11:49:03.553Z,6.78
2022-08-16T11:54:09.036Z,6.87
2022-08-16T11:59:25.374Z,7.22
2022-08-16T12:04:30.412Z,6.12
2022-08-16T12:09:33.718Z,6.80
2022-08-16T12:14:41.898Z,6.05
2022-08-16T12:19:48.188Z,6.87
2022-08-16T12:29:58.595Z,6.30
2022-08-16T12:35:04.847Z,7.72
2022-08-16T12:40:24.372Z,6.87
2022-08-16T12:45:30.118Z,12.25
2022-08-16T12:50:33.214Z,6.78
2022-08-16T12:55:41.805Z,7.73
2022-08-16T13:00:46.616Z,8.55
2022-08-16T13:11:01.021Z,8.48
2022-08-16T13:21:23.378Z,7.37
2022-08-16T13:26:27.238Z,6.87
2022-08-16T13:31:29.064Z,6.10
2022-08-16T13:36:48.535Z,6.25
2022-08-16T13:41:54.086Z,7.70
2022-08-16T13:46:56.580Z,7.40
2022-08-16T13:51:58.410Z,6.50
2022-08-16T13:57:02.887Z,6.90
2022-08-16T14:02:07.481Z,7.90
2022-08-16T14:07:11.544Z,7.35
2022-08-16T14:12:59.776Z,7.10
2022-08-16T14:18:17.347Z,7.35
2022-08-16T14:23:27.183Z,6.45
2022-08-16T14:28:30.390Z,6.07
2022-08-16T14:33:33.945Z,7.00
2022-08-16T14:38:39.270Z,6.32
2022-08-16T14:43:41.549Z,6.80
2022-08-16T14:48:45.306Z,6.28
2022-08-16T14:53:49.802Z,6.07
2022-08-16T14:58:54.101Z,5.78
2022-08-16T15:03:57.452Z,5.40
2022-08-16T15:08:59.314Z,6.03
2022-08-16T15:14:01.261Z,5.37
2022-08-16T15:19:04.778Z,5.70
2022-08-16T15:24:06.726Z,5.80
2022-08-16T15:29:18.438Z,5.60
2022-08-16T15:34:25.974Z,5.80
2022-08-16T15:39:38.943Z,5.32
2022-08-16T15:44:52.256Z,5.30
2022-08-16T15:49:56.439Z,5.62
2022-08-16T15:55:00.570Z,5.45
2022-08-16T16:00:16.572Z,5.35
2022-08-16T16:05:19.840Z,5.32
2022-08-16T16:10:21.796Z,5.50
2022-08-16T16:15:34.600Z,5.43
2022-08-16T16:20:39.476Z,5.55
2022-08-16T16:25:43.782Z,5.70
2022-08-16T16:30:46.592Z,4.95
2022-08-16T16:35:55.480Z,5.50
2022-08-16T16:41:00.164Z,4.80
2022-08-16T16:46:22.906Z,5.43
2022-08-16T16:51:28.069Z,5.55
2022-08-16T16:56:35.632Z,5.55
2022-08-16T17:01:59.659Z,19.42
2022-08-16T17:12:23.684Z,6.28
2022-08-16T17:17:29.572Z,6.53
2022-08-16T17:22:33.359Z,6.35
2022-08-16T17:27:35.343Z,6.03
2022-08-16T17:38:02.176Z,6.93
2022-08-16T17:39:27.125Z,6.53
2022-08-16T17:43:04.805Z,6.90
2022-08-16T17:48:07.518Z,6.50
2022-08-16T17:53:11.387Z,6.32
2022-08-16T17:58:22.449Z,6.37
2022-08-16T18:04:02.810Z,6.80
2022-08-16T18:08:57.848Z,6.60
2022-08-16T18:14:04.729Z,6.70
2022-08-16T18:19:06.622Z,6.68
2022-08-16T18:24:11.366Z,7.28
2022-08-16T18:34:14.920Z,7.43
2022-08-16T18:39:18.249Z,7.03
2022-08-16T18:44:24.988Z,7.45
2022-08-16T18:49:28.789Z,7.97
2022-08-16T18:54:33.263Z,7.90
2022-08-16T18:59:35.129Z,7.82
2022-08-16T19:04:56.151Z,8.70
2022-08-16T19:10:02.129Z,8.98
2022-08-16T19:15:05.943Z,8.43
2022-08-16T19:20:10.865Z,7.62
2022-08-16T19:25:14.604Z,9.80
2022-08-16T19:30:18.003Z,9.32
2022-08-16T19:35:19.999Z,9.90
2022-08-16T19:40:37.845Z,11.73
2022-08-16T19:45:45.390Z,10.07
2022-08-16T19:50:47.902Z,10.60
2022-08-16T19:55:51.121Z,10.98
2022-08-16T20:00:56.319Z,10.35
2022-08-16T20:05:58.531Z,11.33
2022-08-16T20:11:06.658Z,10.80
2022-08-16T20:16:11.252Z,11.38
2022-08-16T20:21:13.105Z,11.85
2022-08-16T20:26:16.385Z,10.50
2022-08-16T20:31:19.279Z,10.85
2022-08-16T20:36:24.444Z,10.32
2022-08-16T20:46:29.677Z,10.55
2022-08-16T20:51:32.303Z,10.40
2022-08-16T20:56:50.328Z,10.20
2022-08-16T21:01:52.294Z,11.18
2022-08-16T21:06:55.531Z,10.93
2022-08-16T21:12:01.021Z,10.80
2022-08-16T21:17:04.847Z,11.80
2022-08-16T21:22:15.393Z,12.43
2022-08-16T21:27:18.970Z,11.15
2022-08-16T21:32:35.330Z,11.38
2022-08-16T21:37:38.041Z,10.80
2022-08-16T21:42:42.935Z,11.05
2022-08-16T21:47:44.768Z,11.55
2022-08-16T21:52:46.704Z,12.20
2022-08-16T21:57:50.086Z,12.27
2022-08-16T22:02:54.451Z,11.95
2022-08-16T22:08:00.929Z,12.37
2022-08-16T22:13:15.078Z,12.25
2022-08-16T22:18:17.900Z,12.13
2022-08-16T22:23:34.342Z,11.60
2022-08-16T22:28:37.696Z,11.30
2022-08-16T22:33:52.968Z,12.77
2022-08-16T22:38:57.471Z,13.02
2022-08-16T22:49:04.331Z,12.02
2022-08-16T22:54:45.770Z,12.50
2022-08-16T22:59:30.808Z,12.43
2022-08-16T23:04:32.708Z,13.38
2022-08-16T23:09:34.583Z,12.73
2022-08-16T23:14:37.772Z,12.18
2022-08-16T23:19:39.623Z,12.13
2022-08-16T23:24:56.053Z,12.88
2022-08-16T23:30:00.022Z,12.23
2022-08-16T23:35:02.169Z,12.75
2022-08-16T23:40:05.259Z,12.85
2022-08-16T23:45:09.481Z,13.93
2022-08-16T23:50:11.317Z,12.30
2022-08-16T23:55:13.154Z,12.45
